Time;durP1;ratioP1;P1;durP2;ratioP2;P2;SDS_P1;SDS_P2;PMS_P1;PMS_P2;Temp;Humidity;BMP_temperature;BMP_pressure;BME280_temperature;BME280_humidity;BME280_pressure;Samples;Min_cycle;Max_cycle;Signal;HPM_P1;HPM_P2
2021/09/14 04:11:48;;;;;;;;;28.25;26.25;;;;;20.13;54.12;98979.66;6151405;28;97948;-61
2021/09/14 04:14:52;;;;;;;;;29.00;27.00;;;;;20.15;54.45;98991.97;6180131;28;97384;-61
2021/09/14 04:17:55;;;;;;;;;31.00;28.60;;;;;20.15;54.63;98982.94;6163805;28;97442;-59
2021/09/14 04:21:00;;;;;;;;;29.40;27.80;;;;;19.99;54.59;98957.53;6151110;28;97714;-59
2021/09/14 04:24:05;;;;;;;;;30.60;27.60;;;;;20.14;54.70;98989.50;6151459;28;96724;-61
2021/09/14 04:27:12;;;;;;;;;33.40;28.60;;;;;20.14;54.62;98998.53;6170156;28;97425;-63
2021/09/14 04:30:17;;;;;;;;;31.00;29.00;;;;;20.02;54.39;98978.06;6174014;28;97756;-63
2021/09/14 04:33:22;;;;;;;;;27.50;26.50;;;;;20.14;54.54;98993.06;6165336;28;97307;-62
2021/09/14 04:36:27;;;;;;;;;29.50;25.00;;;;;20.17;54.93;98999.91;6185672;28;96925;-63
2021/09/14 04:39:32;;;;;;;;;31.50;28.00;;;;;20.17;54.95;99005.38;6168831;28;96808;-63
2021/09/14 04:42:35;;;;;;;;;29.00;28.00;;;;;20.18;54.73;98998.81;6169956;28;96808;-62
2021/09/14 04:45:39;;;;;;;;;29.00;27.00;;;;;20.19;54.32;99001.25;6188441;28;97070;-63
2021/09/14 04:48:43;;;;;;;;;31.00;29.00;;;;;20.24;54.00;99012.16;6170290;28;97547;-63
2021/09/14 04:51:48;;;;;;;;;27.60;25.60;;;;;20.27;54.73;99008.06;6168868;28;97490;-63
2021/09/14 04:54:51;;;;;;;;;29.60;28.00;;;;;20.29;55.14;99017.63;6170191;28;96486;-61
2021/09/14 04:57:54;;;;;;;;;31.20;28.20;;;;;20.40;54.89;99021.16;6149741;28;97877;-63
2021/09/14 05:00:59;;;;;;;;;32.00;29.00;;;;;20.48;55.08;99017.81;6162767;28;96564;-63
2021/09/14 05:04:03;;;;;;;;;31.00;29.60;;;;;20.57;54.67;99023.53;6170116;28;97385;-61
2021/09/14 05:07:08;;;;;;;;;28.75;26.75;;;;;20.60;54.66;99017.47;6170133;28;96880;-63
2021/09/14 05:10:12;;;;;;;;;29.25;27.75;;;;;20.58;54.27;99015.00;6163109;28;97523;-61
2021/09/14 05:13:23;;;;;;;;;28.60;28.00;;;;;20.60;54.21;99017.47;6187616;28;97287;-62
2021/09/14 05:16:26;;;;;;;;;28.20;27.00;;;;;20.68;54.00;99027.81;6145286;28;98565;-63
2021/09/14 05:19:52;;;;;;;;;31.00;28.00;;;;;20.80;54.07;99027.47;6165979;28;97316;-63
2021/09/14 05:23:12;;;;;;;;;29.60;28.60;;;;;20.90;53.81;99038.38;6185479;28;96973;-63
2021/09/14 05:26:15;;;;;;;;;28.00;27.00;;;;;20.97;53.87;99036.13;6163436;28;97708;-64
2021/09/14 05:29:18;;;;;;;;;30.00;28.00;;;;;21.03;53.66;99041.28;6152238;28;97099;-62
2021/09/14 05:32:22;;;;;;;;;32.33;30.00;;;;;21.15;54.21;99039.03;6186994;28;97253;-62
2021/09/14 05:35:34;;;;;;;;;28.60;27.00;;;;;21.06;54.04;99007.81;6176960;28;98216;-61
2021/09/14 05:38:41;;;;;;;;;32.00;30.00;;;;;21.50;53.75;99031.59;6153862;28;97284;-60
2021/09/14 05:41:45;;;;;;;;;34.00;30.00;;;;;21.68;53.34;99036.34;6150736;28;96960;-62
2021/09/14 05:44:48;;;;;;;;;34.00;31.00;;;;;21.88;52.89;99038.03;6168961;28;96565;-62
2021/09/14 05:47:54;;;;;;;;;33.00;30.00;;;;;22.08;52.93;99037.84;6169974;28;97710;-60
2021/09/14 05:51:01;;;;;;;;;31.25;28.25;;;;;22.27;52.36;99033.22;6169400;28;96500;-61
2021/09/14 05:54:11;;;;;;;;;35.00;29.60;;;;;22.48;52.17;99035.69;6167731;28;98291;-61
2021/09/14 05:57:15;;;;;;;;;33.00;29.00;;;;;22.61;51.62;99040.44;6167814;28;97421;-61
2021/09/14 06:00:21;;;;;;;;;34.50;29.50;;;;;22.66;51.03;99024.69;6172857;28;98026;-59
2021/09/14 06:03:27;;;;;;;;;33.00;30.00;;;;;22.74;50.79;99029.53;6168695;28;97503;-60
2021/09/14 06:06:31;;;;;;;;;30.60;27.40;;;;;22.94;50.69;99035.84;6176082;28;97397;-61
2021/09/14 06:09:36;;;;;;;;;30.80;28.40;;;;;22.99;50.75;99047.59;6169874;28;97100;-62
2021/09/14 06:12:39;;;;;;;;;35.00;31.75;;;;;23.18;50.13;99047.56;6186929;28;97088;-61
2021/09/14 06:15:44;;;;;;;;;34.60;30.00;;;;;23.35;49.62;99056.09;6169095;28;97243;-61
2021/09/14 06:18:52;;;;;;;;;33.00;30.00;;;;;23.48;49.13;99047.06;6176822;28;96652;-61
2021/09/14 06:21:56;;;;;;;;;32.00;30.00;;;;;23.15;49.00;98968.41;6165954;28;96734;-62
2021/09/14 06:25:01;;;;;;;;;35.40;31.40;;;;;23.80;48.94;99040.69;6169092;28;97879;-62
2021/09/14 06:28:05;;;;;;;;;41.00;35.00;;;;;24.04;48.99;99044.06;6173553;28;97411;-62
2021/09/14 06:31:09;;;;;;;;;37.67;33.00;;;;;24.25;47.45;99041.75;6175264;28;96689;-60
2021/09/14 06:34:12;;;;;;;;;38.40;33.40;;;;;24.50;47.66;99051.41;6170277;28;97033;-62
2021/09/14 06:37:16;;;;;;;;;33.80;29.80;;;;;24.78;47.02;99036.44;6185988;28;97351;-60
2021/09/14 06:40:22;;;;;;;;;27.60;25.60;;;;;24.92;45.52;99019.91;6176184;28;97483;-61
2021/09/14 06:43:25;;;;;;;;;26.60;25.00;;;;;25.21;45.44;99042.34;6174695;28;97605;-62
2021/09/14 06:46:49;;;;;;;;;30.00;26.00;;;;;25.43;44.99;99041.50;6186201;28;96559;-62
2021/09/14 06:49:53;;;;;;;;;28.80;26.60;;;;;25.60;44.11;99044.41;6187992;28;96660;-61
2021/09/14 06:53:12;;;;;;;;;28.40;27.00;;;;;25.92;44.06;99042.44;6170221;28;97094;-60
2021/09/14 06:56:17;;;;;;;;;28.00;25.33;;;;;26.09;42.69;99032.28;6185096;28;97389;-60
2021/09/14 06:59:21;;;;;;;;;31.80;27.00;;;;;26.53;42.72;99038.78;6193434;28;97434;-60
2021/09/14 07:02:24;;;;;;;;;27.00;24.75;;;;;26.73;42.24;99049.22;6171891;28;97734;-61
2021/09/14 07:05:28;;;;;;;;;27.60;25.00;;;;;27.02;41.86;99052.19;6185620;28;97317;-61
2021/09/14 07:08:31;;;;;;;;;29.00;25.00;;;;;27.38;41.05;99043.50;6185330;28;97239;-59
2021/09/14 07:11:36;;;;;;;;;28.00;25.00;;;;;27.63;40.38;99044.63;6168594;28;97943;-62
2021/09/14 07:14:39;;;;;;;;;22.50;21.00;;;;;28.02;39.75;99047.09;6185448;28;97063;-61
2021/09/14 07:17:43;;;;;;;;;31.00;27.20;;;;;28.33;38.78;99052.38;6186704;28;97502;-62
2021/09/14 07:20:46;;;;;;;;;28.75;25.75;;;;;28.47;38.53;99048.53;6185554;28;98304;-62
2021/09/14 07:23:50;;;;;;;;;27.00;25.40;;;;;28.73;38.18;99058.34;6185472;28;96781;-61
2021/09/14 07:26:55;;;;;;;;;29.00;24.40;;;;;28.79;37.17;99054.22;6185727;28;97271;-62
2021/09/14 07:29:58;;;;;;;;;28.40;25.00;;;;;28.83;37.10;99055.16;6185647;28;97806;-60
2021/09/14 07:33:01;;;;;;;;;25.50;23.00;;;;;29.00;37.07;99057.00;6170031;28;96979;-61
2021/09/14 07:36:08;;;;;;;;;25.00;23.00;;;;;29.29;36.81;99056.91;6186837;28;97126;-59
2021/09/14 07:39:11;;;;;;;;;24.25;23.00;;;;;29.71;35.95;99060.41;6167742;28;99652;-61
2021/09/14 07:42:16;;;;;;;;;27.00;25.00;;;;;30.18;34.45;99064.81;6168384;28;97041;-60
2021/09/14 07:45:19;;;;;;;;;25.00;23.80;;;;;30.72;34.33;99068.16;6189110;28;97541;-61
2021/09/14 07:48:22;;;;;;;;;25.00;23.00;;;;;31.14;33.52;99069.47;6189379;28;97258;-60
2021/09/14 07:51:25;;;;;;;;;26.40;24.00;;;;;31.43;33.57;99065.53;6189210;28;97386;-61
2021/09/14 07:54:29;;;;;;;;;24.00;22.60;;;;;31.75;33.36;99064.47;6189161;28;96539;-61
2021/09/14 07:57:34;;;;;;;;;22.00;20.60;;;;;32.09;32.57;99064.94;6183524;28;97034;-60
2021/09/14 08:00:37;;;;;;;;;23.40;23.00;;;;;32.41;31.38;99074.94;6177827;28;96807;-61
2021/09/14 08:03:40;;;;;;;;;23.00;21.00;;;;;32.56;30.61;99071.31;6155189;28;98483;-60
2021/09/14 08:06:44;;;;;;;;;21.20;21.00;;;;;32.68;30.56;99067.66;6189420;28;97025;-61
2021/09/14 08:09:47;;;;;;;;;21.40;20.00;;;;;32.63;30.01;99079.06;6186789;28;97441;-60
2021/09/14 08:12:52;;;;;;;;;22.00;20.00;;;;;32.60;28.94;99074.19;6188542;28;97522;-61
2021/09/14 08:15:55;;;;;;;;;20.00;19.00;;;;;32.48;29.13;99080.69;6188286;28;96651;-62
2021/09/14 08:18:58;;;;;;;;;19.00;17.00;;;;;32.76;29.92;99066.63;6181000;28;97182;-60
2021/09/14 08:22:02;;;;;;;;;21.00;20.00;;;;;33.12;28.79;99070.19;6183701;28;96746;-62
2021/09/14 08:25:06;;;;;;;;;21.00;19.40;;;;;33.36;27.42;99072.72;6184183;28;97484;-62
2021/09/14 08:28:10;;;;;;;;;26.00;22.00;;;;;33.29;28.09;99067.78;6177224;28;97220;-62
2021/09/14 08:31:14;;;;;;;;;18.20;17.00;;;;;33.33;28.15;99074.25;6169635;28;97260;-60
2021/09/14 08:34:17;;;;;;;;;18.60;16.60;;;;;33.48;28.00;99067.78;6187809;28;97556;-61
2021/09/14 08:37:20;;;;;;;;;17.60;15.60;;;;;33.69;27.35;99069.41;6173464;28;96602;-61
2021/09/14 08:40:24;;;;;;;;;21.00;17.00;;;;;33.57;27.13;99061.97;6187215;28;97245;-61
2021/09/14 08:43:29;;;;;;;;;15.00;14.00;;;;;33.85;27.76;99058.94;6187767;28;97040;-61
2021/09/14 08:46:34;;;;;;;;;17.75;15.75;;;;;34.26;27.03;99060.06;6188366;28;97501;-61
2021/09/14 08:49:38;;;;;;;;;17.25;14.25;;;;;34.79;27.54;99060.91;6188252;28;99346;-60
2021/09/14 08:52:41;;;;;;;;;13.00;12.50;;;;;35.22;25.07;99061.50;6188305;28;97503;-60
2021/09/14 08:55:44;;;;;;;;;14.00;12.00;;;;;35.35;26.28;99062.88;6187705;28;97203;-61
2021/09/14 08:58:57;;;;;;;;;18.00;17.00;;;;;34.90;26.21;99055.44;6187468;28;97558;-62
2021/09/14 09:02:02;;;;;;;;;16.00;15.00;;;;;34.69;26.58;99053.97;6186406;28;96631;-61
2021/09/14 09:05:07;;;;;;;;;14.40;12.40;;;;;34.89;26.50;99053.84;6203127;28;97442;-61
2021/09/14 09:08:18;;;;;;;;;13.00;12.00;;;;;35.15;25.52;99059.38;6204691;28;96688;-61
2021/09/14 09:11:23;;;;;;;;;15.00;13.00;;;;;35.27;25.75;99069.59;6196099;28;97520;-62
2021/09/14 09:14:39;;;;;;;;;15.60;14.60;;;;;35.71;25.45;99070.53;6202524;28;96614;-60
2021/09/14 09:17:42;;;;;;;;;18.00;16.00;;;;;35.98;24.03;99071.19;6199991;28;96810;-59
2021/09/14 09:20:49;;;;;;;;;15.80;14.00;;;;;36.30;24.17;99077.13;6194267;28;96710;-61
2021/09/14 09:23:56;;;;;;;;;16.00;14.40;;;;;36.31;23.87;99068.31;6193205;28;96869;-59
2021/09/14 09:26:59;;;;;;;;;18.40;16.40;;;;;36.20;23.92;99063.81;6194972;28;97493;-62
2021/09/14 09:30:06;;;;;;;;;15.00;13.60;;;;;36.20;23.91;99070.22;6182141;28;98036;-60
2021/09/14 09:33:11;;;;;;;;;15.00;14.00;;;;;36.57;23.76;99069.31;6196040;28;97466;-61
2021/09/14 09:36:30;;;;;;;;;15.00;13.00;;;;;36.74;24.54;99069.47;6194509;28;97491;-59
2021/09/14 09:39:44;;;;;;;;;15.00;14.40;;;;;37.20;23.81;99066.91;6202044;28;97009;-60
2021/09/14 09:42:49;;;;;;;;;17.00;15.60;;;;;37.35;23.04;99078.22;6194154;28;96680;-60
2021/09/14 09:45:54;;;;;;;;;15.00;14.00;;;;;37.59;22.89;99078.34;6192475;28;96847;-61
2021/09/14 09:48:58;;;;;;;;;17.00;14.00;;;;;37.29;23.22;99069.34;6199520;28;97093;-59
2021/09/14 09:52:02;;;;;;;;;15.00;14.00;;;;;37.09;23.07;99070.91;6187873;28;96544;-60
2021/09/14 09:55:06;;;;;;;;;14.00;14.00;;;;;36.83;23.09;99072.72;6197127;28;97361;-61
2021/09/14 09:58:10;;;;;;;;;13.40;12.60;;;;;36.96;23.20;99064.75;6191712;28;96606;-61
2021/09/14 10:01:17;;;;;;;;;14.00;13.20;;;;;37.30;23.03;99066.16;6194389;28;97609;-60
2021/09/14 10:04:24;;;;;;;;;14.60;13.60;;;;;37.70;22.82;99064.31;6162113;28;96841;-62
2021/09/14 10:07:29;;;;;;;;;14.00;12.60;;;;;37.85;21.47;99053.88;6161319;28;98147;-62
2021/09/14 10:10:37;;;;;;;;;14.00;12.50;;;;;37.98;21.87;99058.72;6159772;28;97718;-60
2021/09/14 10:13:40;;;;;;;;;14.75;14.00;;;;;38.14;21.52;99058.34;6143410;28;96725;-62
2021/09/14 10:16:49;;;;;;;;;15.40;14.00;;;;;37.95;21.18;99055.91;6161392;28;97442;-61
2021/09/14 10:19:52;;;;;;;;;12.00;12.00;;;;;37.90;21.66;99054.28;6159430;28;97278;-62
2021/09/14 10:23:00;;;;;;;;;15.00;15.00;;;;;37.64;21.03;99049.00;6161287;28;97048;-64
2021/09/14 10:26:07;;;;;;;;;18.80;15.00;;;;;37.31;21.60;99045.28;6150684;28;98128;-61
2021/09/14 10:29:15;;;;;;;;;15.40;15.00;;;;;37.23;21.31;99045.66;6158844;28;96696;-59
2021/09/14 10:32:19;;;;;;;;;15.00;14.00;;;;;37.05;21.65;99039.09;6161105;28;96757;-62
2021/09/14 10:35:28;;;;;;;;;14.00;13.00;;;;;37.45;22.07;99041.69;6161195;28;96627;-60
2021/09/14 10:38:38;;;;;;;;;16.80;15.80;;;;;37.72;20.53;99047.84;6154682;28;96634;-60
2021/09/14 10:41:42;;;;;;;;;15.80;15.80;;;;;37.43;20.97;99041.31;6162099;28;97450;-63
2021/09/14 10:44:47;;;;;;;;;15.00;14.00;;;;;37.64;22.46;99044.19;6159225;28;99735;-62
2021/09/14 10:47:53;;;;;;;;;14.00;13.50;;;;;37.67;21.00;99042.59;6159259;28;97632;-62
2021/09/14 10:51:09;;;;;;;;;15.00;14.50;;;;;38.08;21.65;99055.13;6160952;28;96930;-62
2021/09/14 10:54:20;;;;;;;;;17.00;15.40;;;;;38.44;21.15;99046.72;6149966;28;97045;-62
2021/09/14 10:57:33;;;;;;;;;12.00;12.00;;;;;38.58;21.47;99047.50;6158940;28;97601;-59
2021/09/14 11:00:36;;;;;;;;;15.00;13.80;;;;;38.73;21.44;99047.47;6156931;28;97506;-58
2021/09/14 11:03:41;;;;;;;;;13.00;13.00;;;;;38.92;20.88;99047.84;6134717;28;98158;-61
2021/09/14 11:06:48;;;;;;;;;13.60;13.00;;;;;38.94;20.61;99050.25;6156681;28;97689;-61
2021/09/14 11:09:56;;;;;;;;;13.80;12.20;;;;;38.05;21.72;99050.31;6158194;28;97815;-61
2021/09/14 11:12:59;;;;;;;;;14.00;13.00;;;;;37.19;22.25;99042.81;6159049;28;97200;-60
2021/09/14 11:16:05;;;;;;;;;14.40;13.80;;;;;37.11;22.26;99037.56;6155619;28;96738;-60
2021/09/14 11:19:09;;;;;;;;;16.60;15.00;;;;;36.56;23.10;99045.22;6148772;28;97411;-61
2021/09/14 11:22:12;;;;;;;;;15.20;15.00;;;;;36.46;23.31;99032.72;6163338;28;96693;-61
2021/09/14 11:25:18;;;;;;;;;16.80;15.00;;;;;36.27;23.18;99036.59;6161693;28;96774;-60
2021/09/14 11:28:22;;;;;;;;;15.20;14.20;;;;;36.03;24.11;99035.16;6161805;28;98132;-61
2021/09/14 11:31:27;;;;;;;;;16.00;14.40;;;;;36.43;23.53;99036.31;6161237;28;96714;-60
2021/09/14 11:34:32;;;;;;;;;16.00;15.00;;;;;36.39;22.42;99032.69;6161508;28;98060;-61
2021/09/14 11:37:37;;;;;;;;;17.40;16.40;;;;;36.56;23.22;99031.16;6160234;28;96636;-59
2021/09/14 11:40:45;;;;;;;;;17.00;16.20;;;;;36.34;23.33;99024.63;6161623;28;97353;-60
2021/09/14 11:43:49;;;;;;;;;18.00;17.00;;;;;36.20;22.86;99016.09;6178652;28;97416;-62
2021/09/14 11:46:52;;;;;;;;;17.00;16.40;;;;;36.17;23.52;99011.22;6162757;28;97327;-61
2021/09/14 11:49:56;;;;;;;;;17.80;16.60;;;;;36.05;22.86;99017.94;6137902;28;98497;-60
2021/09/14 11:53:04;;;;;;;;;19.00;17.00;;;;;35.97;23.42;99011.44;6164127;28;96908;-61
2021/09/14 11:56:12;;;;;;;;;18.00;16.40;;;;;36.01;23.54;99015.13;6161673;28;98858;-59
2021/09/14 11:59:17;;;;;;;;;17.00;14.75;;;;;35.84;24.06;99021.38;6162017;28;97533;-60
2021/09/14 12:02:21;;;;;;;;;17.00;16.20;;;;;35.92;23.47;99016.63;6166340;28;97593;-60
2021/09/14 12:05:26;;;;;;;;;16.67;16.00;;;;;36.05;23.47;99015.94;6187930;28;96957;-62
2021/09/14 12:08:30;;;;;;;;;16.00;14.00;;;;;35.93;23.26;99013.44;6188026;28;97452;-62
2021/09/14 12:11:35;;;;;;;;;17.00;16.00;;;;;35.64;24.22;99012.31;6188078;28;98669;-60
2021/09/14 12:14:39;;;;;;;;;18.50;17.00;;;;;35.39;23.56;99007.63;6193169;28;97071;-61
2021/09/14 12:17:42;;;;;;;;;15.00;13.40;;;;;35.06;24.94;99008.44;6187948;28;96946;-60
2021/09/14 12:20:46;;;;;;;;;13.80;13.80;;;;;34.77;24.25;99013.69;6169306;28;96769;-63
2021/09/14 12:23:50;;;;;;;;;17.00;17.00;;;;;34.44;24.93;99005.19;6187503;28;97616;-63
2021/09/14 12:26:56;;;;;;;;;16.00;15.00;;;;;33.98;25.04;99003.59;6187796;28;97548;-62
2021/09/14 12:29:59;;;;;;;;;16.40;15.60;;;;;33.68;26.12;99011.84;6187619;28;97114;-62
2021/09/14 12:33:02;;;;;;;;;13.50;13.00;;;;;33.45;27.00;99006.22;6187636;28;96680;-63
2021/09/14 12:36:07;;;;;;;;;15.00;14.00;;;;;33.21;27.47;98998.97;6187675;28;96614;-62
2021/09/14 12:39:12;;;;;;;;;16.33;14.33;;;;;33.06;27.51;99000.66;6187483;28;97511;-62
2021/09/14 12:42:15;;;;;;;;;17.00;14.40;;;;;32.86;27.79;98993.44;6190865;28;97485;-61
2021/09/14 12:45:18;;;;;;;;;14.00;13.00;;;;;32.98;27.44;98993.31;6187264;28;97494;-61
2021/09/14 12:48:21;;;;;;;;;15.60;13.60;;;;;32.68;27.38;98992.25;6186745;28;97515;-61
2021/09/14 12:51:26;;;;;;;;;18.25;15.00;;;;;32.51;28.14;98992.63;6186574;28;97409;-61
2021/09/14 12:54:30;;;;;;;;;16.00;13.60;;;;;32.53;28.03;98988.31;6169773;28;97954;-62
2021/09/14 12:57:53;;;;;;;;;16.00;14.00;;;;;32.73;27.85;98986.41;6190892;28;97470;-63
2021/09/14 13:00:56;;;;;;;;;13.80;12.80;;;;;33.00;28.30;98987.34;6186988;28;96678;-61
2021/09/14 13:03:59;;;;;;;;;16.00;14.00;;;;;33.27;27.27;98985.53;6179087;28;97458;-60
2021/09/14 13:07:06;;;;;;;;;15.20;14.00;;;;;33.57;26.91;98980.09;6165392;28;97237;-61
2021/09/14 13:10:13;;;;;;;;;15.00;14.00;;;;;33.77;27.18;98987.28;6155069;28;97462;-62
2021/09/14 13:16:37;;;;;;;;;17.00;15.00;;;;;33.86;26.40;98988.66;6180836;28;97165;-62
2021/09/14 13:19:40;;;;;;;;;15.75;15.75;;;;;33.93;25.72;98985.13;6180408;28;97068;-62
2021/09/14 13:22:45;;;;;;;;;16.00;15.00;;;;;34.10;25.71;98983.81;6179098;28;96754;-62
2021/09/14 13:25:48;;;;;;;;;17.80;16.80;;;;;34.26;25.82;98982.50;6181819;28;97538;-62
2021/09/14 13:28:52;;;;;;;;;17.00;17.00;;;;;33.69;25.34;98972.34;6174180;28;97217;-62
2021/09/14 13:31:55;;;;;;;;;17.00;16.00;;;;;33.29;26.26;98975.59;6168989;28;96864;-62
2021/09/14 13:34:58;;;;;;;;;15.75;15.00;;;;;33.25;26.84;98974.72;6177974;28;97430;-64
2021/09/14 13:38:06;;;;;;;;;19.40;18.00;;;;;33.23;26.41;98976.28;6178205;28;96799;-63
2021/09/14 13:41:11;;;;;;;;;18.00;17.00;;;;;33.06;26.52;98969.13;6179732;28;97333;-61
2021/09/14 13:47:35;;;;;;;;;17.00;16.00;;;;;33.12;26.82;98953.69;6178533;28;96925;-61
2021/09/14 13:50:39;;;;;;;;;15.20;13.60;;;;;33.04;27.59;98949.09;6178407;28;97038;-62
2021/09/14 13:53:45;;;;;;;;;15.00;15.00;;;;;32.96;27.45;98958.53;6181040;28;96702;-60
2021/09/14 13:56:48;;;;;;;;;17.00;15.00;;;;;33.03;27.47;98950.31;6163405;28;97786;-61
2021/09/14 13:59:57;;;;;;;;;15.60;15.60;;;;;33.00;27.20;98948.22;6180746;28;96598;-61
2021/09/14 14:03:01;;;;;;;;;17.00;16.00;;;;;32.79;26.86;98953.41;6164550;28;97179;-62
2021/09/14 14:06:04;;;;;;;;;17.80;16.80;;;;;32.57;27.21;98946.53;6186034;28;96799;-62
2021/09/14 14:09:09;;;;;;;;;17.40;16.00;;;;;32.42;27.43;98947.38;6186347;28;97515;-61
2021/09/14 14:12:12;;;;;;;;;17.00;16.20;;;;;32.31;27.80;98949.13;6186332;28;97501;-61
2021/09/14 14:15:15;;;;;;;;;16.50;15.50;;;;;32.18;27.46;98946.47;6185625;28;96561;-62
2021/09/14 14:18:18;;;;;;;;;18.00;16.50;;;;;32.08;27.92;98943.38;6186009;28;98002;-62
2021/09/14 14:21:23;;;;;;;;;19.40;16.40;;;;;31.88;27.90;98930.56;6186045;28;97468;-61
2021/09/14 14:24:27;;;;;;;;;18.00;16.00;;;;;31.80;28.09;98924.00;6186911;28;97058;-62
2021/09/14 14:27:30;;;;;;;;;15.00;15.00;;;;;31.80;28.18;98918.44;6184890;28;97440;-62
2021/09/14 14:30:34;;;;;;;;;15.80;14.80;;;;;31.88;28.15;98923.00;6185573;28;97442;-62
2021/09/14 14:33:38;;;;;;;;;18.00;17.00;;;;;31.89;28.23;98924.63;6185653;28;97546;-61
2021/09/14 14:36:41;;;;;;;;;16.00;14.75;;;;;31.86;27.70;98918.97;6171268;28;97200;-62
2021/09/14 14:39:46;;;;;;;;;19.80;17.20;;;;;31.76;28.12;98914.75;6186121;28;96570;-61
2021/09/14 14:42:49;;;;;;;;;19.00;15.00;;;;;31.80;28.76;98919.25;6185761;28;97378;-62
2021/09/14 14:45:52;;;;;;;;;16.00;15.00;;;;;31.77;28.27;98913.56;6184740;28;96703;-62
2021/09/14 14:48:56;;;;;;;;;16.20;15.00;;;;;31.81;27.78;98915.25;6185436;28;97149;-62
2021/09/14 14:51:59;;;;;;;;;16.00;16.00;;;;;31.77;28.38;98911.59;6182234;28;97451;-62
2021/09/14 14:55:04;;;;;;;;;16.60;15.00;;;;;31.78;28.51;98918.78;6173683;28;97384;-63
2021/09/14 14:58:13;;;;;;;;;16.67;15.00;;;;;31.73;28.14;98921.84;6189811;28;97125;-62
2021/09/14 15:01:17;;;;;;;;;13.80;12.80;;;;;31.62;29.16;98919.97;6188368;28;97630;-63
2021/09/14 15:04:20;;;;;;;;;14.60;13.00;;;;;31.61;29.37;98926.72;6176739;28;96696;-61
2021/09/14 15:07:23;;;;;;;;;15.00;14.60;;;;;31.58;29.58;98925.44;6175501;28;97600;-61
2021/09/14 15:10:28;;;;;;;;;15.00;13.60;;;;;31.57;30.29;98926.59;6168929;28;97155;-61
2021/09/14 15:13:31;;;;;;;;;14.40;13.40;;;;;31.39;30.03;98934.47;6162580;28;96867;-62
2021/09/14 15:16:35;;;;;;;;;14.00;13.00;;;;;31.20;30.85;98930.78;6177592;28;96822;-62
2021/09/14 15:19:38;;;;;;;;;14.80;14.00;;;;;30.94;30.92;98934.00;6154832;28;99570;-62
2021/09/14 15:22:44;;;;;;;;;13.00;12.75;;;;;30.65;31.21;98931.56;6158949;28;96771;-62
2021/09/14 15:25:49;;;;;;;;;13.50;12.00;;;;;30.48;31.76;98941.84;6175681;28;97283;-64
2021/09/14 15:28:53;;;;;;;;;15.50;14.00;;;;;30.23;31.75;98939.44;6155279;28;96913;-63
2021/09/14 15:31:57;;;;;;;;;14.80;14.00;;;;;29.99;32.21;98938.31;6174538;28;96859;-62
2021/09/14 15:35:00;;;;;;;;;15.00;15.00;;;;;29.81;32.38;98934.09;6162342;28;97432;-63
2021/09/14 15:38:16;;;;;;;;;15.00;13.40;;;;;29.62;32.70;98944.97;6161911;28;97986;-62
2021/09/14 15:41:20;;;;;;;;;15.50;15.00;;;;;29.46;32.74;98946.81;6167919;28;97324;-62
2021/09/14 15:44:25;;;;;;;;;17.00;15.40;;;;;29.39;33.18;98938.22;6179226;28;97478;-63
2021/09/14 15:47:28;;;;;;;;;14.00;13.25;;;;;29.23;33.43;98938.84;6166698;28;97534;-63
2021/09/14 15:50:32;;;;;;;;;14.20;13.80;;;;;29.18;33.53;98943.81;6177598;28;97447;-62
2021/09/14 15:53:36;;;;;;;;;17.00;14.00;;;;;29.09;33.70;98951.41;6166970;28;97161;-62
2021/09/14 15:56:40;;;;;;;;;18.00;17.00;;;;;28.97;33.69;98948.63;6173133;28;97333;-62
2021/09/14 15:59:44;;;;;;;;;15.40;14.00;;;;;28.85;33.80;98960.47;6148490;28;97831;-62
2021/09/14 16:02:47;;;;;;;;;17.00;15.00;;;;;28.76;34.01;98957.78;6168850;28;97408;-62
2021/09/14 16:05:50;;;;;;;;;15.00;14.00;;;;;28.63;34.18;98958.03;6186260;28;97313;-62
2021/09/14 16:08:58;;;;;;;;;21.25;19.00;;;;;28.49;34.52;98960.28;6187986;28;97469;-63
2021/09/14 16:12:04;;;;;;;;;15.00;13.00;;;;;28.39;34.74;98964.25;6182279;28;98426;-63
2021/09/14 16:15:08;;;;;;;;;22.40;22.00;;;;;28.22;35.22;98965.16;6164132;28;97553;-63
2021/09/14 16:18:12;;;;;;;;;18.00;17.40;;;;;28.15;35.78;98966.84;6187113;28;97714;-63
2021/09/14 16:21:15;;;;;;;;;15.00;15.00;;;;;28.03;35.95;98973.09;6185081;28;96717;-63
2021/09/14 16:24:19;;;;;;;;;17.40;15.40;;;;;27.91;36.30;98965.47;6166639;28;98132;-63
2021/09/14 16:27:24;;;;;;;;;18.40;16.40;;;;;27.83;36.59;98971.06;6168358;28;97313;-63
2021/09/14 16:30:27;;;;;;;;;17.20;15.00;;;;;27.70;36.94;98964.63;6173798;28;97040;-63
2021/09/14 16:33:30;;;;;;;;;16.80;15.80;;;;;27.65;36.75;98967.56;6186631;28;97497;-63
2021/09/14 16:36:33;;;;;;;;;16.25;15.25;;;;;27.54;37.33;98969.06;6162998;28;98704;-63
2021/09/14 16:39:37;;;;;;;;;16.00;15.00;;;;;27.42;37.06;98966.94;6190238;28;97509;-63
2021/09/14 16:42:42;;;;;;;;;15.00;13.00;;;;;27.33;37.30;98968.94;6184191;28;97017;-63
2021/09/14 16:45:45;;;;;;;;;15.00;15.00;;;;;27.21;37.87;98966.03;6186982;28;97175;-63
2021/09/14 16:48:48;;;;;;;;;14.60;14.60;;;;;27.09;38.17;98972.25;6186981;28;97464;-63
2021/09/14 16:51:52;;;;;;;;;16.00;15.00;;;;;26.96;38.81;98964.94;6168473;28;97143;-63
2021/09/14 16:54:55;;;;;;;;;17.60;16.60;;;;;26.82;39.20;98969.00;6186358;28;97771;-63
2021/09/14 16:58:00;;;;;;;;;15.60;14.60;;;;;26.72;39.33;98976.50;6181935;28;97478;-62
2021/09/14 17:01:05;;;;;;;;;19.40;18.00;;;;;26.62;39.75;98967.69;6182672;28;98210;-62
2021/09/14 17:04:09;;;;;;;;;17.00;17.00;;;;;26.52;39.66;98968.00;6164414;28;97457;-62
2021/09/14 17:07:25;;;;;;;;;17.00;17.00;;;;;26.47;39.60;98969.00;6175935;28;96914;-62
2021/09/14 17:10:29;;;;;;;;;15.00;14.50;;;;;26.46;39.47;98966.53;6183565;28;97269;-62
2021/09/14 17:13:34;;;;;;;;;18.00;16.00;;;;;26.39;39.63;98983.59;6180988;28;98038;-61
2021/09/14 17:16:37;;;;;;;;;15.80;15.00;;;;;26.22;40.50;98976.09;6176082;28;98012;-63
2021/09/14 17:19:41;;;;;;;;;16.60;14.60;;;;;26.10;40.93;98977.81;6183927;28;96588;-63
2021/09/14 17:22:45;;;;;;;;;20.00;19.00;;;;;25.96;40.86;98977.94;6185856;28;97456;-64
2021/09/14 17:25:48;;;;;;;;;20.60;19.60;;;;;25.83;41.44;98974.19;6185306;28;97512;-63
2021/09/14 17:28:53;;;;;;;;;21.00;20.00;;;;;25.75;41.77;98977.75;6180952;28;97242;-64
2021/09/14 17:31:56;;;;;;;;;21.25;20.00;;;;;25.63;42.33;98976.69;6186679;28;97496;-62
2021/09/14 17:34:59;;;;;;;;;20.00;19.75;;;;;25.53;42.34;98986.03;6182952;28;96772;-63
2021/09/14 17:38:03;;;;;;;;;22.00;20.00;;;;;25.41;42.46;98983.06;6170106;28;96919;-62
2021/09/14 17:41:06;;;;;;;;;20.00;19.00;;;;;25.29;43.04;98989.16;6153299;28;97370;-61
2021/09/14 17:44:29;;;;;;;;;23.80;22.80;;;;;25.19;43.10;98983.09;6186926;28;97500;-62
2021/09/14 17:47:32;;;;;;;;;25.60;23.00;;;;;25.12;43.09;98991.00;6185111;28;97455;-62
2021/09/14 17:50:36;;;;;;;;;26.00;24.00;;;;;25.08;43.13;98989.97;6178296;28;98331;-61
2021/09/14 17:53:39;;;;;;;;;29.00;26.20;;;;;24.99;43.25;98998.19;6184786;28;97437;-61
2021/09/14 17:56:42;;;;;;;;;25.60;24.20;;;;;24.94;43.63;98993.63;6186252;28;99110;-62
2021/09/14 17:59:47;;;;;;;;;27.50;26.00;;;;;24.87;43.98;99000.72;6183210;28;97022;-62
2021/09/14 18:02:50;;;;;;;;;28.00;27.00;;;;;24.81;43.84;99000.00;6165367;28;98797;-62
2021/09/14 18:05:56;;;;;;;;;28.60;25.80;;;;;24.72;44.06;98993.59;6163364;28;98132;-62
2021/09/14 18:08:59;;;;;;;;;28.75;25.75;;;;;24.68;44.39;99000.81;6164976;28;96916;-62
2021/09/14 18:12:02;;;;;;;;;29.50;27.00;;;;;24.64;44.60;99002.59;6167869;28;97556;-62
2021/09/14 18:15:11;;;;;;;;;29.60;28.00;;;;;24.57;44.67;98996.69;6142843;28;97287;-62
2021/09/14 18:18:14;;;;;;;;;30.00;27.00;;;;;24.50;44.79;99004.56;6149710;28;96967;-63
2021/09/14 18:21:18;;;;;;;;;29.20;26.80;;;;;24.40;45.20;98999.28;6154713;28;98266;-63
2021/09/14 18:24:21;;;;;;;;;28.60;28.20;;;;;24.36;45.23;99009.28;6160237;28;98252;-63
2021/09/14 18:27:25;;;;;;;;;26.00;25.50;;;;;24.34;45.08;99000.50;6162936;28;98168;-62